sensor_id;sensor_type;location;lat;lon;timestamp;pressure;altitude;pressure_sealevel;temperature;humidity
11856;BME280;5987;53.140;8.904;2023-05-27T00:01:33;103052.56;;;6.77;100.00
11856;BME280;5987;53.140;8.904;2023-05-27T00:04:36;103047.31;;;6.74;100.00
11856;BME280;5987;53.140;8.904;2023-05-27T00:07:40;103048.16;;;6.73;100.00
11856;BME280;5987;53.140;8.904;2023-05-27T00:10:45;103048.16;;;6.74;100.00
11856;BME280;5987;53.140;8.904;2023-05-27T00:13:50;103048.97;;;6.70;100.00
11856;BME280;5987;53.140;8.904;2023-05-27T00:16:54;103043.53;;;6.56;100.00
11856;BME280;5987;53.140;8.904;2023-05-27T00:19:58;103049.72;;;6.61;100.00
11856;BME280;5987;53.140;8.904;2023-05-27T00:23:09;103036.63;;;6.58;100.00
11856;BME280;5987;53.140;8.904;2023-05-27T00:26:14;103040.94;;;6.56;100.00
11856;BME280;5987;53.140;8.904;2023-05-27T00:29:18;103049.34;;;6.40;100.00
11856;BME280;5987;53.140;8.904;2023-05-27T00:32:22;103051.28;;;6.50;100.00
11856;BME280;5987;53.140;8.904;2023-05-27T00:35:26;103038.28;;;6.55;100.00
11856;BME280;5987;53.140;8.904;2023-05-27T00:38:29;103039.13;;;6.52;100.00
11856;BME280;5987;53.140;8.904;2023-05-27T00:41:34;103045.00;;;6.39;100.00
11856;BME280;5987;53.140;8.904;2023-05-27T00:44:39;103041.59;;;6.43;100.00
11856;BME280;5987;53.140;8.904;2023-05-27T00:47:43;103037.31;;;6.48;100.00
11856;BME280;5987;53.140;8.904;2023-05-27T00:50:47;103045.91;;;6.41;100.00
11856;BME280;5987;53.140;8.904;2023-05-27T00:53:51;103043.13;;;6.31;100.00
11856;BME280;5987;53.140;8.904;2023-05-27T00:56:56;103034.44;;;6.31;100.00
11856;BME280;5987;53.140;8.904;2023-05-27T01:00:00;103034.47;;;6.34;100.00
11856;BME280;5987;53.140;8.904;2023-05-27T01:03:05;103031.09;;;6.40;100.00
11856;BME280;5987;53.140;8.904;2023-05-27T01:06:25;103033.69;;;6.40;100.00
11856;BME280;5987;53.140;8.904;2023-05-27T01:09:39;103036.97;;;6.26;100.00
11856;BME280;5987;53.140;8.904;2023-05-27T01:12:54;103039.41;;;6.17;100.00
11856;BME280;5987;53.140;8.904;2023-05-27T01:16:11;103028.59;;;5.95;100.00
11856;BME280;5987;53.140;8.904;2023-05-27T01:19:24;103033.81;;;5.97;100.00
11856;BME280;5987;53.140;8.904;2023-05-27T01:22:33;103035.41;;;5.89;100.00
11856;BME280;5987;53.140;8.904;2023-05-27T01:25:38;103029.34;;;5.88;100.00
11856;BME280;5987;53.140;8.904;2023-05-27T01:28:42;103033.72;;;5.91;100.00
11856;BME280;5987;53.140;8.904;2023-05-27T01:31:56;103040.72;;;5.95;100.00
11856;BME280;5987;53.140;8.904;2023-05-27T01:35:07;103048.13;;;5.72;100.00
11856;BME280;5987;53.140;8.904;2023-05-27T01:38:17;103046.56;;;5.80;100.00
11856;BME280;5987;53.140;8.904;2023-05-27T01:41:22;103038.47;;;5.66;100.00
11856;BME280;5987;53.140;8.904;2023-05-27T01:44:26;103037.81;;;5.78;100.00
11856;BME280;5987;53.140;8.904;2023-05-27T01:47:30;103033.44;;;5.75;100.00
11856;BME280;5987;53.140;8.904;2023-05-27T01:50:34;103033.50;;;5.78;100.00
11856;BME280;5987;53.140;8.904;2023-05-27T01:53:39;103034.34;;;5.79;100.00
11856;BME280;5987;53.140;8.904;2023-05-27T01:56:43;103032.69;;;5.82;100.00
11856;BME280;5987;53.140;8.904;2023-05-27T01:59:47;103020.53;;;5.83;100.00
11856;BME280;5987;53.140;8.904;2023-05-27T02:02:50;103010.06;;;5.80;100.00
11856;BME280;5987;53.140;8.904;2023-05-27T02:05:54;103025.66;;;5.77;100.00
11856;BME280;5987;53.140;8.904;2023-05-27T02:09:00;103024.66;;;5.70;100.00
11856;BME280;5987;53.140;8.904;2023-05-27T02:12:04;103025.22;;;5.55;100.00
11856;BME280;5987;53.140;8.904;2023-05-27T02:15:09;103026.16;;;5.57;100.00
11856;BME280;5987;53.140;8.904;2023-05-27T02:18:13;103025.34;;;5.60;100.00
11856;BME280;5987;53.140;8.904;2023-05-27T02:21:16;103018.88;;;5.42;100.00
11856;BME280;5987;53.140;8.904;2023-05-27T02:24:21;103028.25;;;5.32;100.00
11856;BME280;5987;53.140;8.904;2023-05-27T02:27:25;103022.47;;;5.47;100.00
11856;BME280;5987;53.140;8.904;2023-05-27T02:30:29;103010.41;;;5.53;100.00
11856;BME280;5987;53.140;8.904;2023-05-27T02:33:33;103009.34;;;5.43;100.00
11856;BME280;5987;53.140;8.904;2023-05-27T02:36:37;103008.69;;;5.53;100.00
11856;BME280;5987;53.140;8.904;2023-05-27T02:39:42;103003.91;;;5.30;100.00
11856;BME280;5987;53.140;8.904;2023-05-27T02:42:46;103000.00;;;5.10;100.00
11856;BME280;5987;53.140;8.904;2023-05-27T02:45:49;103004.50;;;5.17;100.00
11856;BME280;5987;53.140;8.904;2023-05-27T02:48:53;103014.97;;;5.20;100.00
11856;BME280;5987;53.140;8.904;2023-05-27T02:51:57;103016.06;;;5.31;100.00
11856;BME280;5987;53.140;8.904;2023-05-27T02:55:02;103025.38;;;5.20;100.00
11856;BME280;5987;53.140;8.904;2023-05-27T02:58:05;103026.16;;;5.16;100.00
11856;BME280;5987;53.140;8.904;2023-05-27T03:01:10;103034.94;;;5.20;100.00
11856;BME280;5987;53.140;8.904;2023-05-27T03:04:13;103017.34;;;5.08;100.00
11856;BME280;5987;53.140;8.904;2023-05-27T03:07:18;103020.13;;;5.17;100.00
11856;BME280;5987;53.140;8.904;2023-05-27T03:10:23;103019.19;;;5.13;100.00
11856;BME280;5987;53.140;8.904;2023-05-27T03:13:27;103016.66;;;5.18;100.00
11856;BME280;5987;53.140;8.904;2023-05-27T03:16:30;103021.13;;;5.24;100.00
11856;BME280;5987;53.140;8.904;2023-05-27T03:19:34;103028.88;;;5.21;100.00
11856;BME280;5987;53.140;8.904;2023-05-27T03:22:37;103017.34;;;5.08;100.00
11856;BME280;5987;53.140;8.904;2023-05-27T03:25:42;103020.91;;;5.13;100.00
11856;BME280;5987;53.140;8.904;2023-05-27T03:28:46;103014.13;;;5.21;100.00
11856;BME280;5987;53.140;8.904;2023-05-27T03:31:50;103006.75;;;5.00;100.00
11856;BME280;5987;53.140;8.904;2023-05-27T03:34:53;103016.50;;;5.10;100.00
11856;BME280;5987;53.140;8.904;2023-05-27T03:37:57;103016.69;;;5.20;100.00
11856;BME280;5987;53.140;8.904;2023-05-27T03:41:02;103009.00;;;5.26;100.00
11856;BME280;5987;53.140;8.904;2023-05-27T03:44:08;103010.53;;;5.16;100.00
11856;BME280;5987;53.140;8.904;2023-05-27T03:47:12;103013.19;;;5.18;100.00
11856;BME280;5987;53.140;8.904;2023-05-27T03:50:16;103017.72;;;5.26;100.00
11856;BME280;5987;53.140;8.904;2023-05-27T03:53:20;103013.38;;;5.27;100.00
11856;BME280;5987;53.140;8.904;2023-05-27T03:56:25;103020.28;;;5.25;100.00
11856;BME280;5987;53.140;8.904;2023-05-27T03:59:29;103019.59;;;5.33;100.00
11856;BME280;5987;53.140;8.904;2023-05-27T04:02:33;103017.88;;;5.36;100.00
11856;BME280;5987;53.140;8.904;2023-05-27T04:05:37;103012.69;;;5.36;100.00
11856;BME280;5987;53.140;8.904;2023-05-27T04:08:40;103018.03;;;5.42;100.00
11856;BME280;5987;53.140;8.904;2023-05-27T04:11:46;103018.13;;;5.48;100.00
11856;BME280;5987;53.140;8.904;2023-05-27T04:14:49;103015.69;;;5.56;100.00
11856;BME280;5987;53.140;8.904;2023-05-27T04:17:53;103018.09;;;5.45;100.00
11856;BME280;5987;53.140;8.904;2023-05-27T04:20:57;103022.88;;;5.69;100.00
11856;BME280;5987;53.140;8.904;2023-05-27T04:24:02;103017.09;;;5.84;100.00
11856;BME280;5987;53.140;8.904;2023-05-27T04:27:07;103014.47;;;5.84;100.00
11856;BME280;5987;53.140;8.904;2023-05-27T04:30:11;103015.69;;;6.03;100.00
11856;BME280;5987;53.140;8.904;2023-05-27T04:33:16;103012.41;;;6.12;100.00
11856;BME280;5987;53.140;8.904;2023-05-27T04:36:20;103017.19;;;6.39;100.00
11856;BME280;5987;53.140;8.904;2023-05-27T04:39:27;103018.69;;;6.83;100.00
11856;BME280;5987;53.140;8.904;2023-05-27T04:42:32;103013.41;;;6.77;100.00
11856;BME280;5987;53.140;8.904;2023-05-27T04:45:38;103012.25;;;7.22;100.00
11856;BME280;5987;53.140;8.904;2023-05-27T04:48:42;103009.03;;;7.43;100.00
11856;BME280;5987;53.140;8.904;2023-05-27T04:51:48;103012.31;;;7.28;100.00
11856;BME280;5987;53.140;8.904;2023-05-27T04:54:52;103008.78;;;7.23;100.00
11856;BME280;5987;53.140;8.904;2023-05-27T04:58:00;103009.16;;;7.54;100.00
11856;BME280;5987;53.140;8.904;2023-05-27T05:01:06;102995.34;;;7.70;100.00
11856;BME280;5987;53.140;8.904;2023-05-27T05:04:19;102993.81;;;7.91;100.00
11856;BME280;5987;53.140;8.904;2023-05-27T05:07:22;102996.38;;;7.85;100.00
11856;BME280;5987;53.140;8.904;2023-05-27T05:10:26;102989.53;;;7.98;100.00
11856;BME280;5987;53.140;8.904;2023-05-27T05:13:31;102983.75;;;8.40;100.00
11856;BME280;5987;53.140;8.904;2023-05-27T05:16:34;102981.34;;;8.71;100.00
11856;BME280;5987;53.140;8.904;2023-05-27T05:19:38;102989.22;;;8.71;100.00
11856;BME280;5987;53.140;8.904;2023-05-27T05:22:42;102986.09;;;9.99;100.00
11856;BME280;5987;53.140;8.904;2023-05-27T05:25:46;102984.34;;;10.23;100.00
11856;BME280;5987;53.140;8.904;2023-05-27T05:28:58;102980.88;;;10.08;100.00
11856;BME280;5987;53.140;8.904;2023-05-27T05:32:01;102987.84;;;9.75;100.00
11856;BME280;5987;53.140;8.904;2023-05-27T05:35:06;102979.09;;;10.29;100.00
11856;BME280;5987;53.140;8.904;2023-05-27T05:38:09;102975.63;;;10.42;100.00
11856;BME280;5987;53.140;8.904;2023-05-27T05:41:13;102977.34;;;10.40;100.00
11856;BME280;5987;53.140;8.904;2023-05-27T05:44:18;102983.44;;;10.72;100.00
11856;BME280;5987;53.140;8.904;2023-05-27T05:47:22;102967.75;;;10.11;100.00
11856;BME280;5987;53.140;8.904;2023-05-27T05:50:25;102981.75;;;10.51;100.00
11856;BME280;5987;53.140;8.904;2023-05-27T05:53:30;102958.63;;;11.39;100.00
11856;BME280;5987;53.140;8.904;2023-05-27T05:56:34;102972.81;;;11.03;100.00
11856;BME280;5987;53.140;8.904;2023-05-27T05:59:39;102971.06;;;11.00;100.00
11856;BME280;5987;53.140;8.904;2023-05-27T06:02:42;102974.75;;;10.46;100.00
11856;BME280;5987;53.140;8.904;2023-05-27T06:05:46;102966.53;;;11.33;100.00
11856;BME280;5987;53.140;8.904;2023-05-27T06:08:50;102969.84;;;11.66;100.00
11856;BME280;5987;53.140;8.904;2023-05-27T06:11:54;102972.69;;;11.27;100.00
11856;BME280;5987;53.140;8.904;2023-05-27T06:14:59;102966.06;;;12.04;100.00
11856;BME280;5987;53.140;8.904;2023-05-27T06:18:03;102965.19;;;12.00;100.00
11856;BME280;5987;53.140;8.904;2023-05-27T06:21:07;102958.84;;;13.04;100.00
11856;BME280;5987;53.140;8.904;2023-05-27T06:24:11;102956.69;;;12.62;100.00
11856;BME280;5987;53.140;8.904;2023-05-27T06:27:14;102963.16;;;13.11;100.00
11856;BME280;5987;53.140;8.904;2023-05-27T06:30:19;102953.94;;;12.73;100.00
11856;BME280;5987;53.140;8.904;2023-05-27T06:33:23;102956.19;;;13.06;100.00
11856;BME280;5987;53.140;8.904;2023-05-27T06:36:27;102947.00;;;13.92;100.00
11856;BME280;5987;53.140;8.904;2023-05-27T06:39:30;102934.59;;;13.43;100.00
11856;BME280;5987;53.140;8.904;2023-05-27T06:42:34;102940.28;;;13.74;100.00
11856;BME280;5987;53.140;8.904;2023-05-27T06:45:39;102946.63;;;14.15;100.00
11856;BME280;5987;53.140;8.904;2023-05-27T06:49:02;102934.78;;;14.36;100.00
11856;BME280;5987;53.140;8.904;2023-05-27T06:52:06;102946.97;;;14.44;100.00
11856;BME280;5987;53.140;8.904;2023-05-27T06:55:13;102943.31;;;14.95;100.00
11856;BME280;5987;53.140;8.904;2023-05-27T06:58:17;102941.72;;;14.42;100.00
11856;BME280;5987;53.140;8.904;2023-05-27T07:01:22;102942.22;;;14.14;100.00
11856;BME280;5987;53.140;8.904;2023-05-27T07:04:25;102935.47;;;14.91;100.00
11856;BME280;5987;53.140;8.904;2023-05-27T07:07:29;102930.69;;;13.67;100.00
11856;BME280;5987;53.140;8.904;2023-05-27T07:10:33;102928.28;;;14.06;100.00
11856;BME280;5987;53.140;8.904;2023-05-27T07:13:36;102930.00;;;14.09;100.00
11856;BME280;5987;53.140;8.904;2023-05-27T07:16:41;102936.72;;;13.75;100.00
11856;BME280;5987;53.140;8.904;2023-05-27T07:19:45;102925.00;;;13.92;100.00
11856;BME280;5987;53.140;8.904;2023-05-27T07:22:49;102931.91;;;14.49;100.00
11856;BME280;5987;53.140;8.904;2023-05-27T07:25:54;102910.78;;;15.32;100.00
11856;BME280;5987;53.140;8.904;2023-05-27T07:28:59;102915.72;;;15.46;100.00
11856;BME280;5987;53.140;8.904;2023-05-27T07:32:05;102912.97;;;15.13;100.00
11856;BME280;5987;53.140;8.904;2023-05-27T07:35:09;102904.75;;;15.63;100.00
11856;BME280;5987;53.140;8.904;2023-05-27T07:38:12;102899.41;;;15.26;100.00
11856;BME280;5987;53.140;8.904;2023-05-27T07:41:16;102897.44;;;16.07;100.00
11856;BME280;5987;53.140;8.904;2023-05-27T07:44:20;102905.41;;;14.52;100.00
11856;BME280;5987;53.140;8.904;2023-05-27T07:47:25;102908.88;;;15.37;100.00
11856;BME280;5987;53.140;8.904;2023-05-27T07:50:29;102905.81;;;14.30;100.00
11856;BME280;5987;53.140;8.904;2023-05-27T07:53:32;102918.75;;;14.44;100.00
11856;BME280;5987;53.140;8.904;2023-05-27T07:56:36;102902.88;;;14.46;100.00
11856;BME280;5987;53.140;8.904;2023-05-27T07:59:40;102898.19;;;15.41;100.00
11856;BME280;5987;53.140;8.904;2023-05-27T08:02:45;102894.06;;;16.00;100.00
11856;BME280;5987;53.140;8.904;2023-05-27T08:05:49;102894.50;;;16.49;100.00
11856;BME280;5987;53.140;8.904;2023-05-27T08:08:52;102884.44;;;18.00;100.00
11856;BME280;5987;53.140;8.904;2023-05-27T08:11:56;102880.56;;;17.57;100.00
11856;BME280;5987;53.140;8.904;2023-05-27T08:15:00;102885.59;;;16.81;100.00
11856;BME280;5987;53.140;8.904;2023-05-27T08:18:05;102881.06;;;16.24;100.00
11856;BME280;5987;53.140;8.904;2023-05-27T08:21:09;102881.00;;;16.58;100.00
11856;BME280;5987;53.140;8.904;2023-05-27T08:24:13;102870.16;;;16.35;100.00
11856;BME280;5987;53.140;8.904;2023-05-27T08:27:17;102870.28;;;16.61;100.00
11856;BME280;5987;53.140;8.904;2023-05-27T08:30:21;102871.47;;;16.81;100.00
11856;BME280;5987;53.140;8.904;2023-05-27T08:33:26;102866.38;;;17.31;100.00
11856;BME280;5987;53.140;8.904;2023-05-27T08:36:30;102856.47;;;17.37;100.00
11856;BME280;5987;53.140;8.904;2023-05-27T08:39:34;102852.72;;;18.20;100.00
11856;BME280;5987;53.140;8.904;2023-05-27T08:42:38;102852.38;;;17.53;100.00
11856;BME280;5987;53.140;8.904;2023-05-27T08:45:42;102849.91;;;17.74;100.00
11856;BME280;5987;53.140;8.904;2023-05-27T08:48:48;102839.06;;;17.80;100.00
11856;BME280;5987;53.140;8.904;2023-05-27T08:51:54;102843.59;;;18.03;100.00
11856;BME280;5987;53.140;8.904;2023-05-27T08:55:00;102843.84;;;18.44;100.00
11856;BME280;5987;53.140;8.904;2023-05-27T08:58:06;102838.72;;;16.82;100.00
11856;BME280;5987;53.140;8.904;2023-05-27T09:01:11;102834.72;;;18.51;100.00
11856;BME280;5987;53.140;8.904;2023-05-27T09:04:16;102824.66;;;18.82;100.00
11856;BME280;5987;53.140;8.904;2023-05-27T09:07:21;102817.47;;;18.84;99.65
11856;BME280;5987;53.140;8.904;2023-05-27T09:10:35;102831.53;;;18.18;85.03
11856;BME280;5987;53.140;8.904;2023-05-27T09:13:42;102820.91;;;17.41;100.00
11856;BME280;5987;53.140;8.904;2023-05-27T09:16:46;102823.00;;;17.83;100.00
11856;BME280;5987;53.140;8.904;2023-05-27T09:19:52;102818.84;;;18.94;90.48
11856;BME280;5987;53.140;8.904;2023-05-27T09:22:57;102806.41;;;20.39;68.92
11856;BME280;5987;53.140;8.904;2023-05-27T09:26:00;102812.06;;;18.87;92.13
11856;BME280;5987;53.140;8.904;2023-05-27T09:29:06;102814.41;;;18.02;100.00
11856;BME280;5987;53.140;8.904;2023-05-27T09:32:09;102813.75;;;18.20;100.00
11856;BME280;5987;53.140;8.904;2023-05-27T09:35:16;102812.50;;;18.52;100.00
11856;BME280;5987;53.140;8.904;2023-05-27T09:38:19;102807.00;;;17.84;100.00
11856;BME280;5987;53.140;8.904;2023-05-27T09:41:24;102794.22;;;18.43;99.78
11856;BME280;5987;53.140;8.904;2023-05-27T09:44:34;102791.25;;;19.60;87.55
11856;BME280;5987;53.140;8.904;2023-05-27T09:47:41;102789.84;;;18.88;89.75
11856;BME280;5987;53.140;8.904;2023-05-27T09:50:49;102794.09;;;18.24;90.94
11856;BME280;5987;53.140;8.904;2023-05-27T09:53:54;102780.59;;;17.80;100.00
11856;BME280;5987;53.140;8.904;2023-05-27T09:56:58;102789.06;;;17.66;100.00
11856;BME280;5987;53.140;8.904;2023-05-27T10:00:05;102782.16;;;18.34;100.00
11856;BME280;5987;53.140;8.904;2023-05-27T10:03:15;102775.94;;;18.58;87.52
11856;BME280;5987;53.140;8.904;2023-05-27T10:06:22;102780.06;;;17.95;94.55
11856;BME280;5987;53.140;8.904;2023-05-27T10:09:28;102766.66;;;18.46;90.81
11856;BME280;5987;53.140;8.904;2023-05-27T10:12:32;102761.13;;;18.50;77.80
11856;BME280;5987;53.140;8.904;2023-05-27T10:15:35;102766.34;;;18.54;97.38
11856;BME280;5987;53.140;8.904;2023-05-27T10:18:43;102761.00;;;18.31;88.64
11856;BME280;5987;53.140;8.904;2023-05-27T10:21:48;102768.66;;;17.93;92.69
11856;BME280;5987;53.140;8.904;2023-05-27T10:24:51;102765.81;;;17.73;93.49
11856;BME280;5987;53.140;8.904;2023-05-27T10:27:55;102757.06;;;17.94;93.93
11856;BME280;5987;53.140;8.904;2023-05-27T10:31:07;102757.94;;;17.95;100.00
11856;BME280;5987;53.140;8.904;2023-05-27T10:34:10;102743.81;;;18.40;96.26
11856;BME280;5987;53.140;8.904;2023-05-27T10:37:21;102745.72;;;18.37;100.00
11856;BME280;5987;53.140;8.904;2023-05-27T10:40:25;102752.34;;;18.26;100.00
11856;BME280;5987;53.140;8.904;2023-05-27T10:43:29;102741.50;;;18.31;93.74
11856;BME280;5987;53.140;8.904;2023-05-27T10:46:39;102737.31;;;18.47;91.03
11856;BME280;5987;53.140;8.904;2023-05-27T10:49:47;102737.22;;;18.27;96.25
11856;BME280;5987;53.140;8.904;2023-05-27T10:52:52;102734.53;;;18.50;91.46
11856;BME280;5987;53.140;8.904;2023-05-27T10:55:59;102735.31;;;17.83;95.21
11856;BME280;5987;53.140;8.904;2023-05-27T10:59:04;102721.63;;;18.41;100.00
11856;BME280;5987;53.140;8.904;2023-05-27T11:02:14;102720.88;;;17.92;99.68
11856;BME280;5987;53.140;8.904;2023-05-27T11:05:19;102715.25;;;18.90;100.00
11856;BME280;5987;53.140;8.904;2023-05-27T11:08:25;102709.34;;;18.81;90.31
11856;BME280;5987;53.140;8.904;2023-05-27T11:11:28;102707.47;;;19.26;98.62
11856;BME280;5987;53.140;8.904;2023-05-27T11:14:32;102711.47;;;18.51;99.50
11856;BME280;5987;53.140;8.904;2023-05-27T11:17:36;102698.28;;;18.92;100.00
11856;BME280;5987;53.140;8.904;2023-05-27T11:20:39;102695.91;;;18.84;95.69
11856;BME280;5987;53.140;8.904;2023-05-27T11:23:46;102685.66;;;18.97;91.92
11856;BME280;5987;53.140;8.904;2023-05-27T11:26:51;102680.84;;;19.26;91.54
11856;BME280;5987;53.140;8.904;2023-05-27T11:29:55;102676.06;;;18.93;90.57
11856;BME280;5987;53.140;8.904;2023-05-27T11:33:02;102679.66;;;19.13;94.24
11856;BME280;5987;53.140;8.904;2023-05-27T11:36:07;102676.81;;;19.57;88.48
11856;BME280;5987;53.140;8.904;2023-05-27T11:39:15;102680.25;;;19.80;87.90
11856;BME280;5987;53.140;8.904;2023-05-27T11:42:23;102673.03;;;20.20;83.16
11856;BME280;5987;53.140;8.904;2023-05-27T11:45:27;102669.56;;;20.18;90.08
11856;BME280;5987;53.140;8.904;2023-05-27T11:48:30;102668.09;;;18.93;89.74
11856;BME280;5987;53.140;8.904;2023-05-27T11:51:36;102659.06;;;18.53;88.67
11856;BME280;5987;53.140;8.904;2023-05-27T11:54:42;102662.28;;;19.04;84.36
11856;BME280;5987;53.140;8.904;2023-05-27T11:57:58;102648.69;;;18.90;87.44
11856;BME280;5987;53.140;8.904;2023-05-27T12:01:02;102647.53;;;18.75;85.30
11856;BME280;5987;53.140;8.904;2023-05-27T12:04:06;102652.91;;;18.73;93.91
11856;BME280;5987;53.140;8.904;2023-05-27T12:07:09;102641.00;;;18.17;93.10
11856;BME280;5987;53.140;8.904;2023-05-27T12:10:23;102640.03;;;18.20;91.62
11856;BME280;5987;53.140;8.904;2023-05-27T12:13:27;102637.38;;;17.74;100.00
11856;BME280;5987;53.140;8.904;2023-05-27T12:16:32;102624.25;;;18.59;99.14
11856;BME280;5987;53.140;8.904;2023-05-27T12:19:35;102615.31;;;18.17;98.92
11856;BME280;5987;53.140;8.904;2023-05-27T12:22:39;102609.09;;;19.02;96.18
11856;BME280;5987;53.140;8.904;2023-05-27T12:25:44;102604.69;;;19.22;95.17
11856;BME280;5987;53.140;8.904;2023-05-27T12:28:48;102597.78;;;19.56;86.69
11856;BME280;5987;53.140;8.904;2023-05-27T12:31:51;102590.16;;;19.29;100.00
11856;BME280;5987;53.140;8.904;2023-05-27T12:34:55;102594.34;;;19.73;87.21
11856;BME280;5987;53.140;8.904;2023-05-27T12:37:59;102588.59;;;19.44;83.16
11856;BME280;5987;53.140;8.904;2023-05-27T12:41:04;102583.41;;;19.60;80.88
11856;BME280;5987;53.140;8.904;2023-05-27T12:44:08;102574.50;;;19.80;75.72
11856;BME280;5987;53.140;8.904;2023-05-27T12:47:12;102572.69;;;19.43;84.94
11856;BME280;5987;53.140;8.904;2023-05-27T12:50:15;102571.72;;;19.25;91.27
11856;BME280;5987;53.140;8.904;2023-05-27T12:53:19;102562.69;;;19.08;81.68
11856;BME280;5987;53.140;8.904;2023-05-27T12:56:24;102560.72;;;19.90;83.50
11856;BME280;5987;53.140;8.904;2023-05-27T12:59:28;102558.63;;;19.96;77.07
11856;BME280;5987;53.140;8.904;2023-05-27T13:02:31;102557.31;;;19.67;75.00
11856;BME280;5987;53.140;8.904;2023-05-27T13:05:35;102550.56;;;19.60;76.13
11856;BME280;5987;53.140;8.904;2023-05-27T13:08:38;102545.88;;;19.46;79.31
11856;BME280;5987;53.140;8.904;2023-05-27T13:11:43;102548.16;;;19.73;76.59
11856;BME280;5987;53.140;8.904;2023-05-27T13:14:47;102543.88;;;19.13;78.72
11856;BME280;5987;53.140;8.904;2023-05-27T13:17:52;102537.19;;;19.23;79.13
11856;BME280;5987;53.140;8.904;2023-05-27T13:20:56;102529.31;;;19.58;79.30
11856;BME280;5987;53.140;8.904;2023-05-27T13:24:00;102531.44;;;19.32;77.69
11856;BME280;5987;53.140;8.904;2023-05-27T13:27:05;102516.94;;;19.57;82.99
11856;BME280;5987;53.140;8.904;2023-05-27T13:30:12;102521.13;;;19.82;85.39
11856;BME280;5987;53.140;8.904;2023-05-27T13:33:18;102519.13;;;18.90;73.80
11856;BME280;5987;53.140;8.904;2023-05-27T13:36:22;102505.63;;;19.52;73.75
11856;BME280;5987;53.140;8.904;2023-05-27T13:39:26;102501.69;;;19.42;71.20
11856;BME280;5987;53.140;8.904;2023-05-27T13:42:30;102501.22;;;19.89;68.30
11856;BME280;5987;53.140;8.904;2023-05-27T13:45:34;102496.22;;;20.35;81.20
11856;BME280;5987;53.140;8.904;2023-05-27T13:48:38;102486.69;;;20.47;77.27
11856;BME280;5987;53.140;8.904;2023-05-27T13:51:45;102487.00;;;20.23;65.07
11856;BME280;5987;53.140;8.904;2023-05-27T13:54:49;102485.81;;;19.94;71.59
11856;BME280;5987;53.140;8.904;2023-05-27T13:57:54;102477.38;;;19.86;71.76
11856;BME280;5987;53.140;8.904;2023-05-27T14:00:58;102479.81;;;19.91;68.20
11856;BME280;5987;53.140;8.904;2023-05-27T14:04:01;102468.81;;;19.97;65.59
11856;BME280;5987;53.140;8.904;2023-05-27T14:07:05;102466.75;;;20.72;70.74
11856;BME280;5987;53.140;8.904;2023-05-27T14:10:09;102458.25;;;20.64;68.10
11856;BME280;5987;53.140;8.904;2023-05-27T14:13:14;102459.50;;;19.88;66.92
11856;BME280;5987;53.140;8.904;2023-05-27T14:16:18;102457.94;;;20.19;64.33
11856;BME280;5987;53.140;8.904;2023-05-27T14:19:23;102458.72;;;20.03;67.59
11856;BME280;5987;53.140;8.904;2023-05-27T14:22:27;102460.44;;;20.39;67.60
11856;BME280;5987;53.140;8.904;2023-05-27T14:25:30;102450.84;;;20.35;66.00
11856;BME280;5987;53.140;8.904;2023-05-27T14:28:35;102449.78;;;20.04;68.51
11856;BME280;5987;53.140;8.904;2023-05-27T14:31:39;102444.50;;;20.20;65.81
11856;BME280;5987;53.140;8.904;2023-05-27T14:34:43;102428.88;;;20.30;76.85
11856;BME280;5987;53.140;8.904;2023-05-27T14:37:46;102431.66;;;20.62;71.25
11856;BME280;5987;53.140;8.904;2023-05-27T14:40:50;102431.84;;;20.42;65.91
11856;BME280;5987;53.140;8.904;2023-05-27T14:43:55;102435.34;;;20.09;63.20
11856;BME280;5987;53.140;8.904;2023-05-27T14:46:59;102427.41;;;20.42;60.72
11856;BME280;5987;53.140;8.904;2023-05-27T14:50:03;102439.66;;;20.11;62.71
11856;BME280;5987;53.140;8.904;2023-05-27T14:53:07;102424.91;;;20.21;60.81
11856;BME280;5987;53.140;8.904;2023-05-27T14:56:10;102429.41;;;19.86;62.79
11856;BME280;5987;53.140;8.904;2023-05-27T14:59:15;102416.03;;;20.54;61.86
11856;BME280;5987;53.140;8.904;2023-05-27T15:02:19;102415.22;;;20.36;60.71
11856;BME280;5987;53.140;8.904;2023-05-27T15:05:24;102415.00;;;20.57;61.68
11856;BME280;5987;53.140;8.904;2023-05-27T15:08:28;102409.84;;;20.87;59.90
11856;BME280;5987;53.140;8.904;2023-05-27T15:11:32;102404.25;;;20.92;62.05
11856;BME280;5987;53.140;8.904;2023-05-27T15:14:37;102399.41;;;20.83;66.99
11856;BME280;5987;53.140;8.904;2023-05-27T15:17:42;102395.66;;;20.53;62.85
11856;BME280;5987;53.140;8.904;2023-05-27T15:20:46;102397.06;;;20.43;65.27
11856;BME280;5987;53.140;8.904;2023-05-27T15:23:50;102391.63;;;20.62;61.55
11856;BME280;5987;53.140;8.904;2023-05-27T15:26:54;102391.50;;;20.97;59.46
11856;BME280;5987;53.140;8.904;2023-05-27T15:30:03;102391.69;;;20.94;58.42
11856;BME280;5987;53.140;8.904;2023-05-27T15:33:07;102384.19;;;20.69;61.45
11856;BME280;5987;53.140;8.904;2023-05-27T15:36:11;102381.66;;;21.14;61.34
11856;BME280;5987;53.140;8.904;2023-05-27T15:39:15;102382.97;;;20.41;62.22
11856;BME280;5987;53.140;8.904;2023-05-27T15:42:18;102375.91;;;21.05;63.07
11856;BME280;5987;53.140;8.904;2023-05-27T15:45:23;102363.59;;;20.87;61.97
11856;BME280;5987;53.140;8.904;2023-05-27T15:48:27;102364.53;;;21.02;66.02
11856;BME280;5987;53.140;8.904;2023-05-27T15:51:31;102356.00;;;21.11;60.63
11856;BME280;5987;53.140;8.904;2023-05-27T15:54:34;102357.28;;;21.04;61.96
11856;BME280;5987;53.140;8.904;2023-05-27T15:57:38;102346.38;;;20.77;61.79
11856;BME280;5987;53.140;8.904;2023-05-27T16:00:44;102358.34;;;21.01;63.17
11856;BME280;5987;53.140;8.904;2023-05-27T16:03:47;102351.78;;;21.07;62.93
11856;BME280;5987;53.140;8.904;2023-05-27T16:06:51;102346.13;;;20.97;64.25
11856;BME280;5987;53.140;8.904;2023-05-27T16:09:54;102346.34;;;20.93;60.68
11856;BME280;5987;53.140;8.904;2023-05-27T16:13:00;102351.69;;;20.77;62.69
11856;BME280;5987;53.140;8.904;2023-05-27T16:16:05;102346.78;;;21.01;64.25